sensor_id;sensor_type;location;lat;lon;timestamp;pressure;altitude;pressure_sealevel;temperature;humidity
46408;BME280;32110;45.724;21.276;2023-07-24T00:00:23;100470.00;;;19.67;nan
46408;BME280;32110;45.724;21.276;2023-07-24T00:02:48;100473.84;;;19.61;nan
46408;BME280;32110;45.724;21.276;2023-07-24T00:05:13;100474.31;;;19.63;nan
46408;BME280;32110;45.724;21.276;2023-07-24T00:07:39;100466.38;;;19.58;nan
46408;BME280;32110;45.724;21.276;2023-07-24T00:10:04;100454.22;;;19.47;nan
46408;BME280;32110;45.724;21.276;2023-07-24T00:12:30;100477.41;;;19.51;nan
46408;BME280;32110;45.724;21.276;2023-07-24T00:14:55;100460.72;;;19.36;nan
46408;BME280;32110;45.724;21.276;2023-07-24T00:17:21;100453.31;;;19.27;nan
46408;BME280;32110;45.724;21.276;2023-07-24T00:19:46;100445.94;;;19.19;nan
46408;BME280;32110;45.724;21.276;2023-07-24T00:22:12;100465.91;;;19.22;nan
46408;BME280;32110;45.724;21.276;2023-07-24T00:24:37;100456.41;;;19.10;nan
46408;BME280;32110;45.724;21.276;2023-07-24T00:27:03;100461.75;;;19.10;nan
46408;BME280;32110;45.724;21.276;2023-07-24T00:29:28;100464.72;;;19.09;nan
46408;BME280;32110;45.724;21.276;2023-07-24T00:31:54;100453.34;;;18.93;nan
46408;BME280;32110;45.724;21.276;2023-07-24T00:34:19;100463.22;;;18.92;nan
46408;BME280;32110;45.724;21.276;2023-07-24T00:36:45;100465.38;;;18.90;nan
46408;BME280;32110;45.724;21.276;2023-07-24T00:39:10;100447.34;;;18.77;nan
46408;BME280;32110;45.724;21.276;2023-07-24T00:41:35;100453.44;;;18.83;nan
46408;BME280;32110;45.724;21.276;2023-07-24T00:44:01;100460.91;;;18.81;nan
46408;BME280;32110;45.724;21.276;2023-07-24T00:46:27;100427.19;;;18.56;nan
46408;BME280;32110;45.724;21.276;2023-07-24T00:48:57;100460.13;;;18.75;nan
46408;BME280;32110;45.724;21.276;2023-07-24T00:51:23;100451.31;;;18.75;nan
46408;BME280;32110;45.724;21.276;2023-07-24T00:53:49;100451.88;;;18.71;nan
46408;BME280;32110;45.724;21.276;2023-07-24T00:56:14;100449.50;;;18.70;nan
46408;BME280;32110;45.724;21.276;2023-07-24T00:58:40;100446.63;;;18.61;nan
46408;BME280;32110;45.724;21.276;2023-07-24T01:01:05;100448.00;;;18.54;nan
46408;BME280;32110;45.724;21.276;2023-07-24T01:03:34;100459.16;;;18.61;nan
46408;BME280;32110;45.724;21.276;2023-07-24T01:06:03;100456.50;;;18.61;nan
46408;BME280;32110;45.724;21.276;2023-07-24T01:08:29;100455.19;;;18.58;nan
46408;BME280;32110;45.724;21.276;2023-07-24T01:10:57;100463.69;;;18.60;nan
46408;BME280;32110;45.724;21.276;2023-07-24T01:13:25;100443.28;;;18.40;nan
46408;BME280;32110;45.724;21.276;2023-07-24T01:16:14;100469.91;;;18.45;nan
46408;BME280;32110;45.724;21.276;2023-07-24T01:18:43;100460.91;;;18.31;nan
46408;BME280;32110;45.724;21.276;2023-07-24T01:21:11;100464.19;;;18.23;nan
46408;BME280;32110;45.724;21.276;2023-07-24T01:26:16;100441.13;;;17.93;nan
46408;BME280;32110;45.724;21.276;2023-07-24T01:28:41;100452.03;;;17.96;nan
46408;BME280;32110;45.724;21.276;2023-07-24T01:31:07;100442.97;;;17.92;nan
46408;BME280;32110;45.724;21.276;2023-07-24T01:33:33;100447.72;;;18.00;nan
46408;BME280;32110;45.724;21.276;2023-07-24T01:36:02;100444.56;;;17.93;nan
46408;BME280;32110;45.724;21.276;2023-07-24T01:38:31;100449.63;;;17.95;nan
46408;BME280;32110;45.724;21.276;2023-07-24T01:40:57;100452.28;;;17.95;nan
46408;BME280;32110;45.724;21.276;2023-07-24T01:43:24;100455.50;;;17.97;nan
46408;BME280;32110;45.724;21.276;2023-07-24T01:45:51;100433.69;;;17.84;nan
46408;BME280;32110;45.724;21.276;2023-07-24T01:48:16;100428.63;;;17.83;nan
46408;BME280;32110;45.724;21.276;2023-07-24T01:50:42;100438.22;;;17.84;nan
46408;BME280;32110;45.724;21.276;2023-07-24T01:53:07;100424.69;;;17.65;nan
46408;BME280;32110;45.724;21.276;2023-07-24T01:55:32;100434.78;;;17.68;nan
46408;BME280;32110;45.724;21.276;2023-07-24T01:57:58;100439.53;;;17.76;nan
46408;BME280;32110;45.724;21.276;2023-07-24T02:00:23;100402.63;;;17.44;nan
46408;BME280;32110;45.724;21.276;2023-07-24T02:02:48;100440.38;;;17.67;nan
46408;BME280;32110;45.724;21.276;2023-07-24T02:05:14;100437.47;;;17.63;nan
46408;BME280;32110;45.724;21.276;2023-07-24T02:07:39;100439.84;;;17.59;nan
46408;BME280;32110;45.724;21.276;2023-07-24T02:10:05;100444.38;;;17.64;nan
46408;BME280;32110;45.724;21.276;2023-07-24T02:12:30;100420.22;;;17.40;nan
46408;BME280;32110;45.724;21.276;2023-07-24T02:14:56;100432.75;;;17.34;nan
46408;BME280;32110;45.724;21.276;2023-07-24T02:17:23;100423.69;;;17.30;nan
46408;BME280;32110;45.724;21.276;2023-07-24T02:19:48;100423.44;;;17.27;nan
46408;BME280;32110;45.724;21.276;2023-07-24T02:22:13;100427.66;;;17.38;nan
46408;BME280;32110;45.724;21.276;2023-07-24T02:24:39;100429.28;;;17.39;nan
46408;BME280;32110;45.724;21.276;2023-07-24T02:27:05;100424.19;;;17.42;nan
46408;BME280;32110;45.724;21.276;2023-07-24T02:29:31;100422.34;;;17.38;nan
46408;BME280;32110;45.724;21.276;2023-07-24T02:31:57;100434.59;;;17.34;nan
46408;BME280;32110;45.724;21.276;2023-07-24T02:34:23;100437.81;;;17.36;nan
46408;BME280;32110;45.724;21.276;2023-07-24T02:36:52;100423.69;;;17.25;nan
46408;BME280;32110;45.724;21.276;2023-07-24T02:39:17;100422.09;;;17.29;nan
46408;BME280;32110;45.724;21.276;2023-07-24T02:41:42;100434.88;;;17.32;nan
46408;BME280;32110;45.724;21.276;2023-07-24T02:44:08;100426.09;;;17.32;nan
46408;BME280;32110;45.724;21.276;2023-07-24T02:46:33;100420.50;;;17.28;nan
46408;BME280;32110;45.724;21.276;2023-07-24T02:48:58;100426.34;;;17.25;nan
46408;BME280;32110;45.724;21.276;2023-07-24T02:51:24;100420.50;;;17.23;nan
46408;BME280;32110;45.724;21.276;2023-07-24T02:53:49;100418.91;;;17.22;nan
46408;BME280;32110;45.724;21.276;2023-07-24T02:56:15;100411.72;;;17.22;nan
46408;BME280;32110;45.724;21.276;2023-07-24T02:58:40;100405.09;;;17.20;nan
46408;BME280;32110;45.724;21.276;2023-07-24T03:01:07;100426.09;;;17.32;nan
46408;BME280;32110;45.724;21.276;2023-07-24T03:03:33;100426.63;;;17.34;nan
46408;BME280;32110;45.724;21.276;2023-07-24T03:05:58;100413.56;;;17.32;nan
46408;BME280;32110;45.724;21.276;2023-07-24T03:08:24;100417.31;;;17.31;nan
46408;BME280;32110;45.724;21.276;2023-07-24T03:10:49;100387.25;;;17.15;nan
46408;BME280;32110;45.724;21.276;2023-07-24T03:13:15;100408.00;;;17.23;nan
46408;BME280;32110;45.724;21.276;2023-07-24T03:15:40;100402.69;;;17.18;nan
46408;BME280;32110;45.724;21.276;2023-07-24T03:18:05;100409.09;;;17.12;nan
46408;BME280;32110;45.724;21.276;2023-07-24T03:20:31;100412.78;;;17.16;nan
46408;BME280;32110;45.724;21.276;2023-07-24T03:22:56;100412.78;;;17.11;nan
46408;BME280;32110;45.724;21.276;2023-07-24T03:25:22;100402.97;;;17.07;nan
46408;BME280;32110;45.724;21.276;2023-07-24T03:27:47;100416.78;;;17.19;nan
46408;BME280;32110;45.724;21.276;2023-07-24T03:30:13;100411.75;;;17.12;nan
46408;BME280;32110;45.724;21.276;2023-07-24T03:32:38;100414.41;;;17.07;nan
46408;BME280;32110;45.724;21.276;2023-07-24T03:35:05;100407.75;;;17.10;nan
46408;BME280;32110;45.724;21.276;2023-07-24T03:37:31;100409.63;;;17.04;nan
46408;BME280;32110;45.724;21.276;2023-07-24T03:39:56;100400.06;;;16.98;nan
46408;BME280;32110;45.724;21.276;2023-07-24T03:42:26;100412.28;;;17.14;nan
46408;BME280;32110;45.724;21.276;2023-07-24T03:44:52;100384.09;;;17.03;nan
46408;BME280;32110;45.724;21.276;2023-07-24T03:47:18;100395.25;;;17.10;nan
46408;BME280;32110;45.724;21.276;2023-07-24T03:49:43;100400.28;;;17.12;nan
46408;BME280;32110;45.724;21.276;2023-07-24T03:52:08;100401.91;;;17.13;nan
46408;BME280;32110;45.724;21.276;2023-07-24T03:54:34;100387.53;;;17.09;nan
46408;BME280;32110;45.724;21.276;2023-07-24T03:56:59;100386.19;;;17.06;nan
46408;BME280;32110;45.724;21.276;2023-07-24T03:59:24;100396.31;;;17.09;nan
46408;BME280;32110;45.724;21.276;2023-07-24T04:01:50;100405.34;;;17.08;nan
46408;BME280;32110;45.724;21.276;2023-07-24T04:04:15;100400.84;;;17.04;nan
46408;BME280;32110;45.724;21.276;2023-07-24T04:06:41;100398.47;;;17.07;nan
46408;BME280;32110;45.724;21.276;2023-07-24T04:09:06;100393.13;;;17.07;nan
46408;BME280;32110;45.724;21.276;2023-07-24T04:11:31;100396.84;;;17.11;nan
46408;BME280;32110;45.724;21.276;2023-07-24T04:13:57;100402.44;;;17.15;nan
46408;BME280;32110;45.724;21.276;2023-07-24T04:16:22;100387.28;;;17.10;nan
46408;BME280;32110;45.724;21.276;2023-07-24T04:18:48;100391.00;;;17.14;nan
46408;BME280;32110;45.724;21.276;2023-07-24T04:21:13;100403.19;;;17.26;nan
46408;BME280;32110;45.724;21.276;2023-07-24T04:23:38;100405.63;;;17.22;nan
46408;BME280;32110;45.724;21.276;2023-07-24T04:26:04;100414.38;;;17.28;nan
46408;BME280;32110;45.724;21.276;2023-07-24T04:28:29;100398.41;;;17.28;nan
46408;BME280;32110;45.724;21.276;2023-07-24T04:30:54;100396.53;;;17.33;nan
46408;BME280;32110;45.724;21.276;2023-07-24T04:33:20;100398.66;;;17.41;nan
46408;BME280;32110;45.724;21.276;2023-07-24T04:35:48;100401.06;;;17.43;nan
46408;BME280;32110;45.724;21.276;2023-07-24T04:38:14;100395.19;;;17.46;nan
46408;BME280;32110;45.724;21.276;2023-07-24T04:40:43;100390.66;;;17.47;nan
46408;BME280;32110;45.724;21.276;2023-07-24T04:43:09;100399.94;;;17.54;nan
46408;BME280;32110;45.724;21.276;2023-07-24T04:45:34;100391.94;;;17.54;nan
46408;BME280;32110;45.724;21.276;2023-07-24T04:48:00;100396.47;;;17.59;nan
46408;BME280;32110;45.724;21.276;2023-07-24T04:50:25;100380.53;;;17.49;nan
46408;BME280;32110;45.724;21.276;2023-07-24T04:52:50;100383.44;;;17.52;nan
46408;BME280;32110;45.724;21.276;2023-07-24T04:55:16;100394.88;;;17.58;nan
46408;BME280;32110;45.724;21.276;2023-07-24T04:57:41;100395.91;;;17.72;nan
46408;BME280;32110;45.724;21.276;2023-07-24T05:00:07;100387.94;;;17.67;nan
46408;BME280;32110;45.724;21.276;2023-07-24T05:02:32;100404.38;;;17.79;nan
46408;BME280;32110;45.724;21.276;2023-07-24T05:04:58;100395.88;;;17.77;nan
46408;BME280;32110;45.724;21.276;2023-07-24T05:07:23;100407.81;;;17.90;nan
46408;BME280;32110;45.724;21.276;2023-07-24T05:09:48;100423.53;;;17.97;nan
46408;BME280;32110;45.724;21.276;2023-07-24T05:12:14;100398.22;;;17.94;nan
46408;BME280;32110;45.724;21.276;2023-07-24T05:14:39;100419.47;;;18.04;nan
46408;BME280;32110;45.724;21.276;2023-07-24T05:17:04;100410.69;;;18.04;nan
46408;BME280;32110;45.724;21.276;2023-07-24T05:19:30;100419.72;;;18.13;nan
46408;BME280;32110;45.724;21.276;2023-07-24T05:21:55;100422.63;;;18.17;nan
46408;BME280;32110;45.724;21.276;2023-07-24T05:24:20;100426.34;;;18.21;nan
46408;BME280;32110;45.724;21.276;2023-07-24T05:26:46;100419.91;;;18.22;nan
46408;BME280;32110;45.724;21.276;2023-07-24T05:29:11;100429.75;;;18.32;nan
46408;BME280;32110;45.724;21.276;2023-07-24T05:31:36;100410.03;;;18.27;nan
46408;BME280;32110;45.724;21.276;2023-07-24T05:34:02;100415.28;;;18.43;nan
46408;BME280;32110;45.724;21.276;2023-07-24T05:36:29;100422.88;;;18.60;nan
46408;BME280;32110;45.724;21.276;2023-07-24T05:38:54;100423.31;;;18.72;nan
46408;BME280;32110;45.724;21.276;2023-07-24T05:41:19;100388.81;;;18.52;nan
46408;BME280;32110;45.724;21.276;2023-07-24T05:43:45;100378.94;;;18.52;nan
46408;BME280;32110;45.724;21.276;2023-07-24T05:46:10;100417.88;;;18.92;nan
46408;BME280;32110;45.724;21.276;2023-07-24T05:48:36;100425.78;;;19.03;nan
46408;BME280;32110;45.724;21.276;2023-07-24T05:51:01;100420.63;;;19.11;nan
46408;BME280;32110;45.724;21.276;2023-07-24T05:53:26;100416.09;;;19.12;nan
46408;BME280;32110;45.724;21.276;2023-07-24T05:55:59;100413.16;;;19.13;nan
46408;BME280;32110;45.724;21.276;2023-07-24T05:58:25;100414.34;;;19.26;nan
46408;BME280;32110;45.724;21.276;2023-07-24T06:00:51;100405.16;;;19.38;nan
46408;BME280;32110;45.724;21.276;2023-07-24T06:03:16;100405.84;;;19.48;nan
46408;BME280;32110;45.724;21.276;2023-07-24T06:05:42;100380.81;;;19.44;nan
46408;BME280;32110;45.724;21.276;2023-07-24T06:08:07;100400.31;;;19.69;nan
46408;BME280;32110;45.724;21.276;2023-07-24T06:10:34;100397.34;;;19.70;nan
46408;BME280;32110;45.724;21.276;2023-07-24T06:12:59;100366.16;;;19.61;nan
46408;BME280;32110;45.724;21.276;2023-07-24T06:15:25;100381.47;;;19.79;nan
46408;BME280;32110;45.724;21.276;2023-07-24T06:17:50;100371.91;;;19.97;nan
46408;BME280;32110;45.724;21.276;2023-07-24T06:20:16;100367.41;;;20.11;nan
46408;BME280;32110;45.724;21.276;2023-07-24T06:22:41;100386.09;;;20.30;nan
46408;BME280;32110;45.724;21.276;2023-07-24T06:25:07;100367.97;;;20.27;nan
46408;BME280;32110;45.724;21.276;2023-07-24T06:27:32;100385.53;;;20.52;nan
46408;BME280;32110;45.724;21.276;2023-07-24T06:29:58;100389.16;;;20.62;nan
46408;BME280;32110;45.724;21.276;2023-07-24T06:32:23;100387.97;;;20.68;nan
46408;BME280;32110;45.724;21.276;2023-07-24T06:34:48;100378.19;;;20.77;nan
46408;BME280;32110;45.724;21.276;2023-07-24T06:37:14;100373.97;;;20.90;nan
46408;BME280;32110;45.724;21.276;2023-07-24T06:39:39;100376.94;;;21.02;nan
46408;BME280;32110;45.724;21.276;2023-07-24T06:42:05;100375.28;;;21.06;nan
46408;BME280;32110;45.724;21.276;2023-07-24T06:44:30;100362.00;;;21.15;nan
46408;BME280;32110;45.724;21.276;2023-07-24T06:46:55;100365.38;;;21.34;nan
46408;BME280;32110;45.724;21.276;2023-07-24T06:49:21;100378.31;;;21.46;nan
46408;BME280;32110;45.724;21.276;2023-07-24T06:51:46;100376.59;;;21.64;nan
46408;BME280;32110;45.724;21.276;2023-07-24T06:54:12;100379.28;;;21.78;nan
46408;BME280;32110;45.724;21.276;2023-07-24T06:56:37;100332.94;;;21.63;nan
46408;BME280;32110;45.724;21.276;2023-07-24T06:59:02;100374.94;;;22.04;nan
46408;BME280;32110;45.724;21.276;2023-07-24T07:01:28;100372.84;;;22.15;nan
46408;BME280;32110;45.724;21.276;2023-07-24T07:03:53;100371.66;;;22.21;nan
46408;BME280;32110;45.724;21.276;2023-07-24T07:06:19;100372.50;;;22.30;nan
46408;BME280;32110;45.724;21.276;2023-07-24T07:08:44;100367.31;;;22.57;nan
46408;BME280;32110;45.724;21.276;2023-07-24T07:11:09;100367.88;;;22.67;nan
46408;BME280;32110;45.724;21.276;2023-07-24T07:13:35;100380.44;;;22.81;nan
46408;BME280;32110;45.724;21.276;2023-07-24T07:16:00;100361.00;;;22.84;nan
46408;BME280;32110;45.724;21.276;2023-07-24T07:18:26;100366.72;;;22.91;nan
46408;BME280;32110;45.724;21.276;2023-07-24T07:20:53;100368.44;;;23.09;nan
46408;BME280;32110;45.724;21.276;2023-07-24T07:23:19;100362.13;;;23.14;nan
46408;BME280;32110;45.724;21.276;2023-07-24T07:25:45;100365.81;;;23.27;nan
46408;BME280;32110;45.724;21.276;2023-07-24T07:28:11;100357.44;;;23.28;nan
46408;BME280;32110;45.724;21.276;2023-07-24T07:30:37;100368.25;;;23.46;nan
46408;BME280;32110;45.724;21.276;2023-07-24T07:33:02;100352.59;;;23.48;nan
46408;BME280;32110;45.724;21.276;2023-07-24T07:35:28;100359.97;;;23.82;nan
46408;BME280;32110;45.724;21.276;2023-07-24T07:37:53;100330.88;;;23.75;nan
46408;BME280;32110;45.724;21.276;2023-07-24T07:40:19;100344.94;;;23.98;nan
46408;BME280;32110;45.724;21.276;2023-07-24T07:42:44;100349.34;;;24.20;nan
46408;BME280;32110;45.724;21.276;2023-07-24T07:45:10;100334.66;;;24.35;nan
46408;BME280;32110;45.724;21.276;2023-07-24T07:47:36;100329.56;;;24.34;nan
46408;BME280;32110;45.724;21.276;2023-07-24T07:50:02;100347.63;;;24.51;nan
46408;BME280;32110;45.724;21.276;2023-07-24T07:52:27;100334.59;;;24.70;nan
46408;BME280;32110;45.724;21.276;2023-07-24T07:54:53;100341.22;;;24.73;nan
46408;BME280;32110;45.724;21.276;2023-07-24T07:57:18;100320.63;;;24.86;nan
46408;BME280;32110;45.724;21.276;2023-07-24T07:59:43;100308.91;;;24.81;nan
46408;BME280;32110;45.724;21.276;2023-07-24T08:02:09;100326.97;;;25.19;nan
46408;BME280;32110;45.724;21.276;2023-07-24T08:04:34;100324.28;;;25.19;nan
46408;BME280;32110;45.724;21.276;2023-07-24T08:07:00;100321.69;;;25.32;nan
46408;BME280;32110;45.724;21.276;2023-07-24T08:09:25;100312.75;;;25.40;nan
46408;BME280;32110;45.724;21.276;2023-07-24T08:11:51;100306.06;;;25.46;nan
46408;BME280;32110;45.724;21.276;2023-07-24T08:14:17;100305.41;;;25.49;nan
46408;BME280;32110;45.724;21.276;2023-07-24T08:16:43;100305.94;;;25.63;nan
46408;BME280;32110;45.724;21.276;2023-07-24T08:19:08;100305.88;;;25.72;nan
46408;BME280;32110;45.724;21.276;2023-07-24T08:21:34;100306.25;;;25.83;nan
46408;BME280;32110;45.724;21.276;2023-07-24T08:23:59;100281.19;;;25.82;nan
46408;BME280;32110;45.724;21.276;2023-07-24T08:26:27;100319.34;;;26.14;nan
46408;BME280;32110;45.724;21.276;2023-07-24T08:28:52;100316.91;;;26.21;nan
46408;BME280;32110;45.724;21.276;2023-07-24T08:31:17;100308.25;;;26.28;nan
46408;BME280;32110;45.724;21.276;2023-07-24T08:33:43;100304.50;;;26.41;nan
46408;BME280;32110;45.724;21.276;2023-07-24T08:36:08;100278.34;;;26.33;nan
46408;BME280;32110;45.724;21.276;2023-07-24T08:38:37;100306.47;;;26.65;nan
46408;BME280;32110;45.724;21.276;2023-07-24T08:41:08;100313.00;;;26.77;nan
46408;BME280;32110;45.724;21.276;2023-07-24T08:43:35;100308.63;;;26.84;nan
46408;BME280;32110;45.724;21.276;2023-07-24T08:46:02;100295.69;;;26.90;nan
46408;BME280;32110;45.724;21.276;2023-07-24T08:48:33;100298.28;;;26.99;nan
46408;BME280;32110;45.724;21.276;2023-07-24T08:51:02;100306.38;;;27.11;nan
46408;BME280;32110;45.724;21.276;2023-07-24T08:53:33;100303.56;;;27.20;nan
46408;BME280;32110;45.724;21.276;2023-07-24T08:56:02;100319.34;;;27.30;nan
46408;BME280;32110;45.724;21.276;2023-07-24T08:58:28;100313.34;;;27.36;nan
46408;BME280;32110;45.724;21.276;2023-07-24T09:00:53;100292.31;;;27.30;nan
46408;BME280;32110;45.724;21.276;2023-07-24T09:03:19;100301.84;;;27.52;nan
46408;BME280;32110;45.724;21.276;2023-07-24T09:05:45;100297.75;;;27.58;nan
46408;BME280;32110;45.724;21.276;2023-07-24T09:08:11;100309.00;;;27.72;nan
46408;BME280;32110;45.724;21.276;2023-07-24T09:10:36;100315.19;;;27.85;nan
46408;BME280;32110;45.724;21.276;2023-07-24T09:13:02;100287.56;;;27.79;nan
46408;BME280;32110;45.724;21.276;2023-07-24T09:15:38;100289.25;;;27.84;nan
46408;BME280;32110;45.724;21.276;2023-07-24T09:18:04;100305.31;;;28.05;nan
46408;BME280;32110;45.724;21.276;2023-07-24T09:20:38;100301.81;;;28.05;nan
46408;BME280;32110;45.724;21.276;2023-07-24T09:23:03;100284.22;;;27.98;nan
46408;BME280;32110;45.724;21.276;2023-07-24T09:25:30;100314.09;;;28.30;nan
46408;BME280;32110;45.724;21.276;2023-07-24T09:27:57;100301.88;;;28.36;nan
46408;BME280;32110;45.724;21.276;2023-07-24T09:30:23;100299.69;;;28.42;nan
46408;BME280;32110;45.724;21.276;2023-07-24T09:32:55;100297.13;;;28.46;nan
46408;BME280;32110;45.724;21.276;2023-07-24T09:35:21;100305.06;;;28.54;nan
46408;BME280;32110;45.724;21.276;2023-07-24T09:38:07;100287.72;;;28.43;nan
46408;BME280;32110;45.724;21.276;2023-07-24T09:40:45;100302.44;;;28.58;nan
46408;BME280;32110;45.724;21.276;2023-07-24T09:43:38;100303.78;;;28.64;nan
46408;BME280;32110;45.724;21.276;2023-07-24T09:46:07;100305.78;;;28.67;nan
46408;BME280;32110;45.724;21.276;2023-07-24T09:48:33;100296.25;;;28.73;nan
46408;BME280;32110;45.724;21.276;2023-07-24T09:51:00;100302.63;;;28.81;nan
46408;BME280;32110;45.724;21.276;2023-07-24T09:53:44;100287.50;;;28.80;nan
46408;BME280;32110;45.724;21.276;2023-07-24T09:56:14;100281.38;;;28.83;nan
46408;BME280;32110;45.724;21.276;2023-07-24T09:58:40;100269.84;;;28.86;nan
46408;BME280;32110;45.724;21.276;2023-07-24T10:01:09;100270.72;;;28.90;nan
46408;BME280;32110;45.724;21.276;2023-07-24T10:03:38;100261.88;;;28.93;nan
46408;BME280;32110;45.724;21.276;2023-07-24T10:06:04;100275.31;;;29.05;nan
46408;BME280;32110;45.724;21.276;2023-07-24T10:08:30;100272.34;;;29.11;nan
46408;BME280;32110;45.724;21.276;2023-07-24T10:10:58;100284.84;;;29.15;nan
46408;BME280;32110;45.724;21.276;2023-07-24T10:13:26;100271.72;;;29.17;nan
46408;BME280;32110;45.724;21.276;2023-07-24T10:15:52;100267.97;;;29.22;nan
46408;BME280;32110;45.724;21.276;2023-07-24T10:18:26;100272.66;;;29.25;nan
46408;BME280;32110;45.724;21.276;2023-07-24T10:21:00;100259.97;;;29.29;nan
46408;BME280;32110;45.724;21.276;2023-07-24T10:23:26;100269.81;;;29.37;nan
46408;BME280;32110;45.724;21.276;2023-07-24T10:25:52;100268.41;;;29.43;nan
46408;BME280;32110;45.724;21.276;2023-07-24T10:28:18;100258.00;;;29.45;nan
46408;BME280;32110;45.724;21.276;2023-07-24T10:30:44;100254.56;;;29.48;nan
46408;BME280;32110;45.724;21.276;2023-07-24T10:33:20;100259.41;;;29.59;nan
46408;BME280;32110;45.724;21.276;2023-07-24T10:36:06;100240.41;;;29.59;nan
46408;BME280;32110;45.724;21.276;2023-07-24T10:38:37;100233.91;;;29.63;nan
46408;BME280;32110;45.724;21.276;2023-07-24T10:41:04;100240.38;;;29.75;nan
46408;BME280;32110;45.724;21.276;2023-07-24T10:43:46;100232.28;;;29.78;nan
46408;BME280;32110;45.724;21.276;2023-07-24T10:46:13;100245.31;;;29.88;nan
46408;BME280;32110;45.724;21.276;2023-07-24T10:48:47;100241.44;;;29.89;nan
46408;BME280;32110;45.724;21.276;2023-07-24T10:51:13;100241.44;;;29.89;nan
46408;BME280;32110;45.724;21.276;2023-07-24T10:53:47;100225.09;;;29.86;nan
46408;BME280;32110;45.724;21.276;2023-07-24T10:56:14;100216.66;;;29.91;nan
46408;BME280;32110;45.724;21.276;2023-07-24T10:58:40;100233.25;;;30.09;nan
46408;BME280;32110;45.724;21.276;2023-07-24T11:01:06;100224.66;;;30.07;nan
46408;BME280;32110;45.724;21.276;2023-07-24T11:03:35;100221.59;;;30.08;nan
46408;BME280;32110;45.724;21.276;2023-07-24T11:06:02;100241.22;;;30.21;nan
46408;BME280;32110;45.724;21.276;2023-07-24T11:08:28;100215.97;;;30.21;nan
46408;BME280;32110;45.724;21.276;2023-07-24T11:10:56;100233.31;;;30.36;nan
46408;BME280;32110;45.724;21.276;2023-07-24T11:13:24;100228.00;;;30.43;nan
46408;BME280;32110;45.724;21.276;2023-07-24T11:15:50;100211.72;;;30.43;nan
46408;BME280;32110;45.724;21.276;2023-07-24T11:18:17;100210.38;;;30.56;nan
46408;BME280;32110;45.724;21.276;2023-07-24T11:20:45;100201.13;;;30.61;nan
46408;BME280;32110;45.724;21.276;2023-07-24T11:23:12;100194.91;;;30.60;nan
46408;BME280;32110;45.724;21.276;2023-07-24T11:25:38;100197.34;;;30.69;nan
46408;BME280;32110;45.724;21.276;2023-07-24T11:28:08;100188.41;;;30.68;nan
46408;BME280;32110;45.724;21.276;2023-07-24T11:30:34;100192.44;;;30.78;nan
46408;BME280;32110;45.724;21.276;2023-07-24T11:33:02;100183.13;;;30.79;nan
46408;BME280;32110;45.724;21.276;2023-07-24T11:35:28;100185.97;;;30.86;nan
46408;BME280;32110;45.724;21.276;2023-07-24T11:37:54;100192.72;;;30.96;nan
46408;BME280;32110;45.724;21.276;2023-07-24T11:40:20;100188.50;;;31.02;nan
46408;BME280;32110;45.724;21.276;2023-07-24T11:42:47;100171.00;;;31.00;nan
46408;BME280;32110;45.724;21.276;2023-07-24T11:45:13;100177.38;;;31.11;nan
46408;BME280;32110;45.724;21.276;2023-07-24T11:47:46;100178.97;;;31.15;nan
46408;BME280;32110;45.724;21.276;2023-07-24T11:50:13;100152.88;;;31.11;nan
46408;BME280;32110;45.724;21.276;2023-07-24T11:52:46;100163.97;;;31.29;nan
46408;BME280;32110;45.724;21.276;2023-07-24T11:55:19;100155.81;;;31.29;nan
46408;BME280;32110;45.724;21.276;2023-07-24T11:57:59;100154.34;;;31.38;nan
46408;BME280;32110;45.724;21.276;2023-07-24T12:00:24;100145.78;;;31.36;nan
46408;BME280;32110;45.724;21.276;2023-07-24T12:02:50;100149.81;;;31.46;nan
46408;BME280;32110;45.724;21.276;2023-07-24T12:05:16;100148.66;;;31.47;nan
46408;BME280;32110;45.724;21.276;2023-07-24T12:22:38;100141.13;;;31.74;45.44
46408;BME280;32110;45.724;21.276;2023-07-24T12:25:06;100143.50;;;31.79;45.59
46408;BME280;32110;45.724;21.276;2023-07-24T12:27:32;100145.09;;;31.81;45.69
46408;BME280;32110;45.724;21.276;2023-07-24T12:29:58;100139.25;;;31.78;45.08
46408;BME280;32110;45.724;21.276;2023-07-24T12:32:24;100125.25;;;31.80;45.46
46408;BME280;32110;45.724;21.276;2023-07-24T12:34:50;100130.34;;;31.85;45.12
46408;BME280;32110;45.724;21.276;2023-07-24T12:37:19;100128.03;;;31.87;45.27
46408;BME280;32110;45.724;21.276;2023-07-24T12:39:45;100106.22;;;31.84;45.67
46408;BME280;32110;45.724;21.276;2023-07-24T12:42:11;100115.31;;;31.98;45.86
46408;BME280;32110;45.724;21.276;2023-07-24T12:44:37;100102.44;;;31.95;45.73
46408;BME280;32110;45.724;21.276;2023-07-24T12:47:04;100111.91;;;32.09;45.68
46408;BME280;32110;45.724;21.276;2023-07-24T12:49:29;100087.66;;;31.96;44.91
46408;BME280;32110;45.724;21.276;2023-07-24T12:51:55;100098.66;;;32.11;45.00
46408;BME280;32110;45.724;21.276;2023-07-24T12:54:20;100096.34;;;32.13;45.59
46408;BME280;32110;45.724;21.276;2023-07-24T12:56:47;100086.25;;;32.17;45.61
46408;BME280;32110;45.724;21.276;2023-07-24T12:59:13;100090.59;;;32.25;45.05
46408;BME280;32110;45.724;21.276;2023-07-24T13:01:38;100075.00;;;32.22;45.10
46408;BME280;32110;45.724;21.276;2023-07-24T13:04:03;100089.88;;;32.35;44.98
46408;BME280;32110;45.724;21.276;2023-07-24T13:06:29;100081.31;;;32.33;45.50
46408;BME280;32110;45.724;21.276;2023-07-24T13:08:54;100088.34;;;32.38;44.12
46408;BME280;32110;45.724;21.276;2023-07-24T13:11:22;100081.31;;;32.37;42.44
46408;BME280;32110;45.724;21.276;2023-07-24T13:13:48;100081.75;;;32.42;42.88